Time;durP1;ratioP1;P1;durP2;ratioP2;P2;SDS_P1;SDS_P2;PMS_P1;PMS_P2;Temp;Humidity;BMP_temperature;BMP_pressure;BME280_temperature;BME280_humidity;BME280_pressure;Samples;Min_cycle;Max_cycle;Signal;HPM_P1;HPM_P2
2022/07/11 00:02:21;;;;;;;1.67;1.08;;;22.90;53.20;;;;;;5060871;28;20044;-82
2022/07/11 00:04:47;;;;;;;2.20;1.27;;;22.80;53.20;;;;;;5035030;28;20115;-82
2022/07/11 00:07:13;;;;;;;1.35;0.98;;;22.80;53.30;;;;;;5051638;28;20501;-82
2022/07/11 00:09:39;;;;;;;1.30;1.02;;;22.80;53.30;;;;;;5056262;28;20052;-86
2022/07/11 00:12:06;;;;;;;1.00;1.00;;;22.80;54.00;;;;;;5052811;28;20056;-83
2022/07/11 00:14:31;;;;;;;1.33;1.13;;;22.80;53.40;;;;;;5039392;28;20465;-87
2022/07/11 00:16:57;;;;;;;1.42;1.00;;;22.70;53.30;;;;;;5058150;28;20119;-81
2022/07/11 00:19:23;;;;;;;1.27;1.13;;;22.80;53.40;;;;;;5057554;28;20044;-82
2022/07/11 00:21:50;;;;;;;2.65;1.20;;;22.70;53.40;;;;;;5056138;28;20468;-82
2022/07/11 00:24:20;;;;;;;1.00;0.90;;;22.70;53.50;;;;;;5075403;28;20472;-84
2022/07/11 00:26:47;;;;;;;1.88;1.30;;;22.70;53.50;;;;;;5058772;28;20025;-83
2022/07/11 00:29:13;;;;;;;2.45;1.13;;;22.70;53.50;;;;;;5056090;28;20034;-82
2022/07/11 00:31:39;;;;;;;1.45;1.00;;;22.70;53.60;;;;;;5070103;28;20388;-84
2022/07/11 00:34:05;;;;;;;1.33;1.00;;;22.70;53.60;;;;;;5072823;28;20036;-82
2022/07/11 00:36:33;;;;;;;2.03;1.10;;;22.70;53.60;;;;;;5054957;28;20029;-82
2022/07/11 00:38:59;;;;;;;2.22;1.10;;;22.70;53.60;;;;;;5038573;28;20040;-82
2022/07/11 00:41:25;;;;;;;1.90;1.20;;;22.60;53.60;;;;;;5067509;28;20044;-82
2022/07/11 00:43:54;;;;;;;1.70;1.20;;;22.60;53.70;;;;;;5060129;28;20041;-83
2022/07/11 00:46:20;;;;;;;2.55;1.30;;;22.60;53.70;;;;;;5074152;28;20059;-83
2022/07/11 00:48:46;;;;;;;2.10;1.20;;;22.60;53.70;;;;;;5051992;28;20036;-82
2022/07/11 00:51:12;;;;;;;1.45;0.93;;;22.60;53.80;;;;;;5065255;28;20028;-82
2022/07/11 00:53:40;;;;;;;1.20;1.10;;;22.60;53.80;;;;;;5073961;28;20543;-85
2022/07/11 00:56:07;;;;;;;2.17;1.10;;;22.60;53.80;;;;;;5056653;28;20491;-81
2022/07/11 00:58:33;;;;;;;1.85;1.30;;;22.50;53.80;;;;;;5073627;28;20035;-83
2022/07/11 01:00:59;;;;;;;1.15;1.02;;;22.60;53.90;;;;;;5057061;28;20468;-81
2022/07/11 01:03:25;;;;;;;1.33;1.00;;;22.50;53.90;;;;;;5072202;28;20417;-82
2022/07/11 01:05:51;;;;;;;1.25;1.00;;;22.50;53.90;;;;;;5040135;28;20128;-82
2022/07/11 01:08:16;;;;;;;1.67;1.20;;;22.50;53.90;;;;;;5073438;28;20115;-82
2022/07/11 01:10:43;;;;;;;0.80;0.80;;;22.50;53.90;;;;;;5056901;28;20119;-82
2022/07/11 01:13:09;;;;;;;1.58;1.00;;;22.50;53.90;;;;;;5052999;28;20041;-82
2022/07/11 01:15:35;;;;;;;2.08;1.00;;;22.50;54.00;;;;;;5064218;28;20047;-83
2022/07/11 01:18:04;;;;;;;1.58;1.10;;;22.50;54.00;;;;;;5069267;28;20029;-82
2022/07/11 01:20:30;;;;;;;2.60;1.20;;;22.50;54.10;;;;;;5053445;28;20029;-82
2022/07/11 01:23:16;;;;;;;1.38;0.90;;;22.50;54.10;;;;;;5064924;28;20044;-80
2022/07/11 01:25:42;;;;;;;1.25;1.00;;;22.40;54.20;;;;;;5055902;28;20033;-81
2022/07/11 01:28:08;;;;;;;1.35;1.08;;;22.40;54.00;;;;;;5065240;28;20450;-81
2022/07/11 01:30:34;;;;;;;0.85;0.85;;;22.40;54.10;;;;;;5074019;28;20059;-82
2022/07/11 01:33:00;;;;;;;1.30;1.05;;;22.40;54.10;;;;;;5082259;28;20029;-82
2022/07/11 01:35:27;;;;;;;1.23;1.00;;;22.40;54.10;;;;;;5074094;28;20044;-82
2022/07/11 01:37:52;;;;;;;0.90;0.90;;;22.40;54.10;;;;;;5053388;28;20035;-87
2022/07/11 01:40:19;;;;;;;1.67;1.08;;;22.40;54.10;;;;;;5056363;28;20028;-82
2022/07/11 01:42:45;;;;;;;1.23;0.80;;;22.40;54.20;;;;;;5056539;28;20051;-83
2022/07/11 01:45:12;;;;;;;1.33;0.80;;;22.40;54.20;;;;;;5073242;28;20055;-82
2022/07/11 01:47:39;;;;;;;2.25;1.00;;;22.30;54.10;;;;;;5073230;28;20461;-82
2022/07/11 01:50:05;;;;;;;1.08;0.98;;;22.30;54.20;;;;;;5072887;28;20040;-82
2022/07/11 01:52:31;;;;;;;1.20;0.88;;;22.30;54.20;;;;;;5056155;28;20086;-83
2022/07/11 01:54:57;;;;;;;1.00;0.90;;;22.30;54.10;;;;;;5041938;28;20029;-80
2022/07/11 01:57:23;;;;;;;0.80;0.80;;;22.30;54.20;;;;;;5071273;28;20028;-82
2022/07/11 01:59:48;;;;;;;1.38;0.80;;;22.30;54.20;;;;;;5072999;28;20039;-82
2022/07/11 02:02:15;;;;;;;1.00;0.77;;;22.30;54.30;;;;;;5073042;28;20388;-81
2022/07/11 02:04:41;;;;;;;0.73;0.73;;;22.30;54.30;;;;;;5073333;28;20076;-82
2022/07/11 02:11:01;;;;;;;0.70;0.70;;;22.20;54.50;;;;;;5074323;28;20039;-82
2022/07/11 02:13:27;;;;;;;0.68;0.68;;;22.20;54.30;;;;;;5073920;28;20477;-81
2022/07/11 02:15:53;;;;;;;0.93;0.70;;;22.20;54.40;;;;;;5056093;28;20102;-82
2022/07/11 02:18:19;;;;;;;1.05;0.80;;;22.20;54.50;;;;;;5074030;28;20032;-81
2022/07/11 02:20:51;;;;;;;0.80;0.80;;;22.10;54.50;;;;;;5056111;28;20374;-82
2022/07/11 02:23:18;;;;;;;0.95;0.60;;;22.20;54.50;;;;;;5072635;28;20032;-82
2022/07/11 02:25:44;;;;;;;0.80;0.80;;;22.20;54.60;;;;;;5072423;28;20024;-82
2022/07/11 02:28:10;;;;;;;1.38;0.88;;;22.20;54.50;;;;;;5073397;28;20029;-82
2022/07/11 02:30:37;;;;;;;0.80;0.80;;;22.10;54.50;;;;;;5072328;28;20021;-83
2022/07/11 02:33:04;;;;;;;1.08;0.90;;;22.10;54.50;;;;;;5056175;28;20040;-81
2022/07/11 02:35:30;;;;;;;0.70;0.70;;;22.10;54.50;;;;;;5071418;28;20028;-82
2022/07/11 02:37:56;;;;;;;1.42;1.00;;;22.10;54.50;;;;;;5054687;28;20119;-82
2022/07/11 02:40:22;;;;;;;0.80;0.80;;;22.10;54.50;;;;;;5072199;28;20649;-81
2022/07/11 02:42:48;;;;;;;0.85;0.70;;;22.10;54.60;;;;;;5072093;28;20119;-82
2022/07/11 02:45:14;;;;;;;1.55;0.80;;;22.10;54.60;;;;;;5053226;28;20081;-82
2022/07/11 02:47:40;;;;;;;1.80;0.90;;;22.10;54.60;;;;;;5038081;28;20035;-82
2022/07/11 02:50:09;;;;;;;0.85;0.80;;;22.10;54.60;;;;;;5034479;28;20094;-83
2022/07/11 02:52:35;;;;;;;1.15;0.80;;;22.10;54.60;;;;;;5068675;28;20090;-84
2022/07/11 02:55:01;;;;;;;0.57;0.57;;;22.00;54.60;;;;;;5069867;28;20085;-85
2022/07/11 02:57:27;;;;;;;0.70;0.70;;;22.10;54.60;;;;;;5071572;28;20035;-84
2022/07/11 02:59:53;;;;;;;0.60;0.60;;;22.00;54.60;;;;;;5063774;28;20481;-86
2022/07/11 03:02:19;;;;;;;0.77;0.70;;;22.00;54.60;;;;;;5054067;28;20067;-82
2022/07/11 03:04:45;;;;;;;0.70;0.70;;;22.00;54.60;;;;;;5084378;28;20119;-82
2022/07/11 03:07:11;;;;;;;0.85;0.80;;;22.00;54.60;;;;;;5066958;28;20024;-82
2022/07/11 03:09:37;;;;;;;0.75;0.70;;;22.00;54.60;;;;;;5061076;28;20040;-82
2022/07/11 03:12:04;;;;;;;0.82;0.80;;;22.00;54.60;;;;;;5063154;28;20029;-82
2022/07/11 03:14:29;;;;;;;0.70;0.70;;;22.00;54.60;;;;;;5051656;28;20037;-82
2022/07/11 03:16:55;;;;;;;1.50;0.93;;;22.00;54.70;;;;;;5067349;28;20028;-83
2022/07/11 03:19:21;;;;;;;1.10;0.73;;;22.00;54.70;;;;;;5055522;28;20070;-82
2022/07/11 03:21:47;;;;;;;1.02;0.80;;;22.00;54.70;;;;;;5069880;28;20460;-82
2022/07/11 03:24:12;;;;;;;0.85;0.70;;;22.00;54.80;;;;;;5035459;28;20052;-81
2022/07/11 03:26:38;;;;;;;0.95;0.70;;;22.00;54.90;;;;;;5035342;28;20381;-82
2022/07/11 03:33:03;;;;;;;0.73;0.70;;;21.90;55.00;;;;;;5050604;28;20055;-82
2022/07/11 03:35:40;;;;;;;0.73;0.70;;;21.90;54.90;;;;;;5035168;28;20124;-81
2022/07/11 03:38:07;;;;;;;1.23;0.77;;;21.90;55.00;;;;;;5041327;28;20111;-82
2022/07/11 03:40:33;;;;;;;0.80;0.77;;;21.90;55.10;;;;;;5072012;28;20056;-81
2022/07/11 03:47:32;;;;;;;0.65;0.65;;;21.90;55.30;;;;;;5052849;28;20171;-82
2022/07/11 03:53:24;;;;;;;1.55;0.60;;;21.80;55.30;;;;;;5076411;28;20036;-82
2022/07/11 03:55:50;;;;;;;1.42;0.80;;;21.80;55.20;;;;;;5053288;28;20055;-82
2022/07/11 03:58:15;;;;;;;0.60;0.60;;;21.80;55.30;;;;;;5038978;28;20533;-82
2022/07/11 04:00:41;;;;;;;0.85;0.77;;;21.80;55.40;;;;;;5038816;28;20024;-82
2022/07/11 04:03:07;;;;;;;0.50;0.50;;;21.80;55.40;;;;;;5039710;28;20076;-83
2022/07/11 04:05:34;;;;;;;1.27;0.90;;;21.80;55.40;;;;;;5038915;28;20029;-82
2022/07/11 04:07:59;;;;;;;1.35;0.90;;;21.80;55.40;;;;;;5022646;28;20025;-82
2022/07/11 04:14:19;;;;;;;1.30;0.80;;;21.70;55.70;;;;;;5056856;28;20064;-82
2022/07/11 04:20:50;;;;;;;0.63;0.63;;;21.70;55.50;;;;;;5051877;28;20087;-82
2022/07/11 04:27:10;;;;;;;0.85;0.63;;;21.70;55.60;;;;;;5056836;28;20097;-82
2022/07/11 04:29:36;;;;;;;0.80;0.80;;;21.60;55.40;;;;;;5055291;28;20041;-83
2022/07/11 04:32:02;;;;;;;0.80;0.80;;;21.60;55.60;;;;;;5022582;28;20072;-82
2022/07/11 04:38:01;;;;;;;0.68;0.65;;;21.60;55.80;;;;;;5056921;28;20035;-82
2022/07/11 04:40:27;;;;;;;1.38;0.80;;;21.60;55.60;;;;;;5066924;28;20024;-82
2022/07/11 04:43:12;;;;;;;1.85;1.00;;;21.60;55.70;;;;;;5054575;28;20029;-80
2022/07/11 04:45:37;;;;;;;0.70;0.70;;;21.60;55.80;;;;;;5079041;28;20047;-85
2022/07/11 04:48:03;;;;;;;0.98;0.88;;;21.60;55.70;;;;;;5054192;28;20032;-82
2022/07/11 04:50:29;;;;;;;0.85;0.70;;;21.60;55.80;;;;;;5066618;28;20036;-80
2022/07/11 04:52:55;;;;;;;1.42;0.70;;;21.60;55.80;;;;;;5043784;28;20385;-86
2022/07/11 04:55:21;;;;;;;1.17;0.80;;;21.60;55.90;;;;;;5067338;28;20048;-84
2022/07/11 04:57:46;;;;;;;0.70;0.70;;;21.60;55.90;;;;;;5056357;28;20036;-83
2022/07/11 05:00:12;;;;;;;0.70;0.70;;;21.60;55.90;;;;;;5074193;28;20025;-83
2022/07/11 05:02:38;;;;;;;1.23;0.85;;;21.60;55.90;;;;;;5072109;28;20389;-83
2022/07/11 05:05:04;;;;;;;0.95;0.82;;;21.60;56.00;;;;;;5068371;28;20025;-85
2022/07/11 05:07:30;;;;;;;0.80;0.80;;;21.60;56.00;;;;;;5053720;28;20076;-83
2022/07/11 05:09:56;;;;;;;0.90;0.80;;;21.60;56.00;;;;;;5052748;28;20547;-84
2022/07/11 05:12:22;;;;;;;0.70;0.70;;;21.60;56.10;;;;;;5072102;28;20897;-83
2022/07/11 05:14:48;;;;;;;0.95;0.85;;;21.60;56.20;;;;;;5057018;28;20043;-83
2022/07/11 05:17:14;;;;;;;1.00;0.90;;;21.60;56.20;;;;;;5069323;28;20032;-83
2022/07/11 05:19:40;;;;;;;0.70;0.70;;;21.60;56.20;;;;;;5064203;28;20028;-83
2022/07/11 05:22:06;;;;;;;0.90;0.80;;;21.60;56.30;;;;;;5072314;28;20028;-84
2022/07/11 05:24:31;;;;;;;1.20;0.90;;;21.60;56.30;;;;;;5057609;28;20028;-82
2022/07/11 05:26:57;;;;;;;1.42;0.98;;;21.60;56.40;;;;;;5072659;28;20033;-86
2022/07/11 05:29:23;;;;;;;0.52;0.52;;;21.60;56.40;;;;;;5071496;28;20028;-83
2022/07/11 05:31:50;;;;;;;0.75;0.70;;;21.60;56.40;;;;;;5053286;28;20033;-85
2022/07/11 05:34:16;;;;;;;0.70;0.70;;;21.60;56.40;;;;;;5068159;28;20036;-84
2022/07/11 05:36:43;;;;;;;0.60;0.60;;;21.50;56.40;;;;;;5069020;28;20029;-83
2022/07/11 05:39:09;;;;;;;0.90;0.80;;;21.60;56.50;;;;;;5046996;28;20029;-83
2022/07/11 05:41:34;;;;;;;0.70;0.70;;;21.50;56.50;;;;;;5070499;28;20036;-84
2022/07/11 05:44:00;;;;;;;0.70;0.70;;;21.60;56.60;;;;;;5059318;28;20072;-82
2022/07/11 05:46:26;;;;;;;1.05;0.80;;;21.60;56.60;;;;;;5054201;28;20060;-82
2022/07/11 05:48:52;;;;;;;0.73;0.70;;;21.60;56.70;;;;;;5064125;28;20108;-82
2022/07/11 05:51:18;;;;;;;0.70;0.70;;;21.50;57.20;;;;;;5068200;28;20035;-81
2022/07/11 05:53:45;;;;;;;0.70;0.70;;;21.50;56.60;;;;;;5056657;28;20041;-82
2022/07/11 05:56:10;;;;;;;0.65;0.65;;;21.60;56.70;;;;;;5052922;28;20035;-86
2022/07/11 05:58:36;;;;;;;0.82;0.80;;;21.50;56.70;;;;;;5050066;28;20024;-82
2022/07/11 06:01:02;;;;;;;0.50;0.50;;;21.50;56.70;;;;;;5038070;28;20026;-84
2022/07/11 06:03:27;;;;;;;0.65;0.57;;;21.60;56.80;;;;;;5065738;28;20048;-82
2022/07/11 06:05:53;;;;;;;0.68;0.65;;;21.60;56.80;;;;;;5074950;28;20068;-82
2022/07/11 06:11:03;;;;;;;0.60;0.60;;;21.60;56.90;;;;;;5062052;28;20032;-86
2022/07/11 06:13:32;;;;;;;0.60;0.60;;;21.60;56.90;;;;;;5052160;28;20035;-82
2022/07/11 06:15:58;;;;;;;0.63;0.63;;;21.60;57.00;;;;;;5054447;28;20124;-82
2022/07/11 06:18:24;;;;;;;0.70;0.70;;;21.60;57.10;;;;;;5070904;28;20090;-80
2022/07/11 06:20:50;;;;;;;0.55;0.55;;;21.50;57.10;;;;;;5055177;28;20036;-81
2022/07/11 06:23:16;;;;;;;0.70;0.70;;;21.60;57.20;;;;;;5049848;28;20091;-82
2022/07/11 06:25:41;;;;;;;0.47;0.47;;;21.60;57.20;;;;;;5042715;28;20024;-81
2022/07/11 06:28:07;;;;;;;0.60;0.60;;;21.60;57.80;;;;;;5071358;28;20036;-82
2022/07/11 06:30:34;;;;;;;0.65;0.55;;;21.60;57.10;;;;;;5071460;28;20032;-81
2022/07/11 06:33:00;;;;;;;0.52;0.52;;;21.60;57.20;;;;;;5072489;28;20039;-82
2022/07/11 06:35:26;;;;;;;0.50;0.50;;;21.60;57.20;;;;;;5052736;28;20025;-82
2022/07/11 06:37:52;;;;;;;0.52;0.52;;;21.60;57.20;;;;;;5026442;28;20053;-83
2022/07/11 06:40:18;;;;;;;0.50;0.50;;;21.60;57.20;;;;;;5054353;28;20060;-85
2022/07/11 06:42:45;;;;;;;0.65;0.60;;;21.60;57.30;;;;;;5070327;28;20040;-82
2022/07/11 06:45:11;;;;;;;0.47;0.47;;;21.60;57.40;;;;;;5073198;28;20054;-82
2022/07/11 06:47:36;;;;;;;0.75;0.75;;;21.60;57.40;;;;;;5070473;28;20028;-84
2022/07/11 06:50:03;;;;;;;0.50;0.47;;;21.60;57.50;;;;;;5064150;28;20104;-80
2022/07/11 06:52:28;;;;;;;0.50;0.50;;;21.60;57.60;;;;;;5069634;28;20033;-83
2022/07/11 06:54:54;;;;;;;0.50;0.50;;;21.70;57.60;;;;;;5071516;28;20035;-82
2022/07/11 06:57:20;;;;;;;0.70;0.70;;;21.60;57.60;;;;;;5042320;28;20032;-82
2022/07/11 06:59:46;;;;;;;0.52;0.52;;;21.70;57.70;;;;;;5076138;28;20372;-82
2022/07/11 07:02:13;;;;;;;0.50;0.50;;;21.70;57.70;;;;;;5071969;28;20032;-82
2022/07/11 07:05:00;;;;;;;1.05;0.70;;;21.60;57.60;;;;;;5072194;28;20373;-81
2022/07/11 07:07:27;;;;;;;0.60;0.60;;;21.70;57.90;;;;;;5073163;28;20127;-82
2022/07/11 07:13:49;;;;;;;0.40;0.40;;;21.70;57.90;;;;;;5073337;28;20190;-82
2022/07/11 07:16:15;;;;;;;1.15;1.00;;;21.70;57.70;;;;;;5072181;28;20067;-82
2022/07/11 07:18:45;;;;;;;0.43;0.43;;;21.70;57.80;;;;;;5055269;28;20389;-82
2022/07/11 07:21:36;;;;;;;0.50;0.50;;;21.70;58.00;;;;;;5056117;28;20365;-81
2022/07/11 07:28:03;;;;;;;0.50;0.50;;;21.70;58.20;;;;;;5077389;28;20082;-82
2022/07/11 07:34:24;;;;;;;0.50;0.50;;;21.70;58.20;;;;;;5076855;28;20047;-82
2022/07/11 07:36:50;;;;;;;0.50;0.50;;;21.80;58.00;;;;;;5076084;28;20473;-83
2022/07/11 07:39:15;;;;;;;0.50;0.50;;;21.80;58.10;;;;;;5063043;28;20028;-82
2022/07/11 07:41:42;;;;;;;0.50;0.50;;;21.80;58.10;;;;;;5075276;28;20035;-83
2022/07/11 07:44:08;;;;;;;0.57;0.57;;;21.90;58.10;;;;;;5056464;28;20037;-91
2022/07/11 07:46:33;;;;;;;0.63;0.63;;;21.80;58.10;;;;;;5063341;28;20075;-92
2022/07/11 07:48:59;;;;;;;0.50;0.50;;;21.90;58.10;;;;;;5076876;28;20071;-95
2022/07/11 07:51:25;;;;;;;0.52;0.52;;;21.90;58.00;;;;;;5076121;28;20041;-91
2022/07/11 07:53:51;;;;;;;0.43;0.43;;;21.90;58.00;;;;;;5069899;28;20063;-91
2022/07/11 07:56:17;;;;;;;0.60;0.60;;;22.00;58.00;;;;;;5075689;28;20067;-89
2022/07/11 07:58:43;;;;;;;0.60;0.60;;;22.00;57.90;;;;;;5075052;28;20112;-88
2022/07/11 08:03:53;;;;;;;0.40;0.40;;;22.10;57.90;;;;;;5076799;28;20044;-88
2022/07/11 08:06:19;;;;;;;0.50;0.50;;;22.10;57.80;;;;;;5069700;28;20279;-88
2022/07/11 08:08:45;;;;;;;0.57;0.57;;;22.20;57.80;;;;;;5057731;28;20174;-85
2022/07/11 08:11:11;;;;;;;0.50;0.50;;;22.10;57.70;;;;;;5090053;28;20056;-86
2022/07/11 08:13:37;;;;;;;0.40;0.40;;;22.20;58.30;;;;;;5075972;28;20122;-87
2022/07/11 08:16:09;;;;;;;0.50;0.50;;;22.30;57.70;;;;;;5068662;28;20170;-86
2022/07/11 08:18:35;;;;;;;0.50;0.50;;;22.30;57.70;;;;;;5082732;28;20032;-89
2022/07/11 08:21:02;;;;;;;0.52;0.52;;;22.30;57.60;;;;;;5057117;28;20020;-88
2022/07/11 08:23:28;;;;;;;0.40;0.40;;;22.40;57.60;;;;;;5073519;28;20460;-86
2022/07/11 08:25:54;;;;;;;0.60;0.60;;;22.40;57.50;;;;;;5073499;28;20047;-81
2022/07/11 08:28:19;;;;;;;0.40;0.40;;;22.50;57.50;;;;;;5056446;28;20032;-84
2022/07/11 08:30:45;;;;;;;0.40;0.40;;;22.50;57.50;;;;;;5072813;28;20051;-83
2022/07/11 08:33:14;;;;;;;0.50;0.50;;;22.50;57.40;;;;;;5055748;28;20036;-80
2022/07/11 08:35:40;;;;;;;0.43;0.43;;;22.60;57.50;;;;;;5069804;28;20448;-80
2022/07/11 08:38:06;;;;;;;0.63;0.50;;;22.60;57.40;;;;;;5067933;28;20029;-80
2022/07/11 08:40:33;;;;;;;0.40;0.40;;;22.60;57.30;;;;;;5055950;28;20035;-81
2022/07/11 08:42:58;;;;;;;0.50;0.50;;;22.70;57.30;;;;;;5057844;28;20037;-81
2022/07/11 08:45:31;;;;;;;0.45;0.45;;;22.70;57.30;;;;;;5053958;28;20426;-82
2022/07/11 08:48:01;;;;;;;0.40;0.40;;;22.70;57.30;;;;;;5075087;28;20535;-81
2022/07/11 08:50:31;;;;;;;0.40;0.40;;;22.70;57.20;;;;;;5054805;28;20412;-80
2022/07/11 08:53:10;;;;;;;0.40;0.40;;;22.80;57.20;;;;;;5040788;28;20028;-81
2022/07/11 08:55:55;;;;;;;0.50;0.50;;;22.80;57.20;;;;;;5064250;28;20025;-81
2022/07/11 08:58:23;;;;;;;0.45;0.45;;;22.80;57.20;;;;;;5077431;28;20041;-82
2022/07/11 09:01:10;;;;;;;0.77;0.60;;;22.90;57.10;;;;;;5045962;28;20480;-80
2022/07/11 09:03:37;;;;;;;0.45;0.45;;;22.90;57.10;;;;;;5073530;28;20051;-81
2022/07/11 09:06:03;;;;;;;0.40;0.40;;;22.90;57.10;;;;;;5058469;28;20060;-81
2022/07/11 09:08:33;;;;;;;0.60;0.60;;;22.90;57.10;;;;;;5055610;28;20485;-81
2022/07/11 09:10:59;;;;;;;0.50;0.50;;;22.90;57.10;;;;;;5052653;28;20067;-80
2022/07/11 09:13:31;;;;;;;0.50;0.50;;;22.90;57.10;;;;;;5035660;28;20028;-81
2022/07/11 09:16:28;;;;;;;0.50;0.50;;;23.00;57.20;;;;;;5066978;28;20023;-80
2022/07/11 09:18:54;;;;;;;0.40;0.40;;;23.00;57.20;;;;;;5041950;28;20051;-81
2022/07/11 09:26:57;;;;;;;0.75;0.60;;;23.00;57.00;;;;;;5055553;28;20181;-81
2022/07/11 09:29:25;;;;;;;0.40;0.40;;;23.00;57.00;;;;;;5058650;28;20055;-84
2022/07/11 09:31:51;;;;;;;0.40;0.40;;;23.00;57.00;;;;;;5058006;28;20028;-81
2022/07/11 09:34:19;;;;;;;0.50;0.50;;;23.10;57.10;;;;;;5041037;28;20047;-85
2022/07/11 09:36:50;;;;;;;0.52;0.52;;;23.10;57.10;;;;;;5071205;28;20457;-80
2022/07/11 09:39:18;;;;;;;0.50;0.50;;;23.10;57.10;;;;;;5071932;28;20388;-80
2022/07/11 09:41:47;;;;;;;1.00;0.70;;;23.10;57.00;;;;;;5071479;28;20031;-80
2022/07/11 09:44:18;;;;;;;1.00;0.60;;;23.20;57.10;;;;;;5053789;28;20037;-79
2022/07/11 09:46:53;;;;;;;0.47;0.47;;;23.20;57.10;;;;;;5065324;28;20127;-80
2022/07/11 09:49:49;;;;;;;0.50;0.50;;;23.20;57.10;;;;;;5054532;28;20037;-81
2022/07/11 09:52:17;;;;;;;0.43;0.43;;;23.20;57.10;;;;;;5051629;28;20047;-80
2022/07/11 09:54:57;;;;;;;0.77;0.50;;;23.20;56.90;;;;;;5055070;28;20028;-79
2022/07/11 09:57:37;;;;;;;0.50;0.50;;;23.20;57.00;;;;;;5073790;28;20024;-79
2022/07/11 10:00:06;;;;;;;0.50;0.50;;;23.30;57.00;;;;;;5071528;28;20028;-80
2022/07/11 10:02:32;;;;;;;0.50;0.50;;;23.30;56.90;;;;;;5071647;28;20123;-79
2022/07/11 10:04:59;;;;;;;0.50;0.50;;;23.30;56.90;;;;;;5072106;28;20025;-79
2022/07/11 10:07:26;;;;;;;0.52;0.52;;;23.30;56.90;;;;;;5054654;28;20055;-81
2022/07/11 10:09:51;;;;;;;0.52;0.52;;;23.30;56.80;;;;;;5054523;28;20182;-82
2022/07/11 10:12:19;;;;;;;0.50;0.50;;;23.30;56.80;;;;;;5071239;28;20041;-78
2022/07/11 10:14:47;;;;;;;0.82;0.50;;;23.30;56.80;;;;;;5054657;28;20113;-82
2022/07/11 10:17:27;;;;;;;1.25;0.60;;;23.30;56.80;;;;;;5051700;28;20361;-81
2022/07/11 10:20:07;;;;;;;0.50;0.50;;;23.30;56.80;;;;;;5046093;28;20028;-81
2022/07/11 10:22:56;;;;;;;0.65;0.50;;;23.40;56.80;;;;;;5063670;28;20044;-81
2022/07/11 10:25:34;;;;;;;0.50;0.50;;;23.40;56.80;;;;;;5068969;28;20032;-80
2022/07/11 10:28:09;;;;;;;0.50;0.50;;;23.40;56.70;;;;;;5072193;28;20028;-80
2022/07/11 10:30:45;;;;;;;0.52;0.50;;;23.40;56.80;;;;;;5070270;28;20070;-81
2022/07/11 10:33:11;;;;;;;0.40;0.40;;;23.40;56.80;;;;;;5070302;28;20028;-83
2022/07/11 10:35:41;;;;;;;0.60;0.60;;;23.50;56.80;;;;;;5053974;28;20024;-83
2022/07/11 10:38:07;;;;;;;0.40;0.40;;;23.50;56.80;;;;;;5069362;28;20519;-83
2022/07/11 10:40:50;;;;;;;0.50;0.50;;;23.50;56.80;;;;;;5067574;28;20087;-82
2022/07/11 10:43:22;;;;;;;0.50;0.50;;;23.50;56.80;;;;;;5071672;28;20040;-86
2022/07/11 10:46:01;;;;;;;0.55;0.50;;;23.60;56.80;;;;;;5063252;28;20115;-83
2022/07/11 10:48:29;;;;;;;0.55;0.55;;;23.60;56.80;;;;;;5070695;28;20082;-83
2022/07/11 10:51:19;;;;;;;0.63;0.63;;;23.60;56.70;;;;;;5054002;28;20035;-82
2022/07/11 10:53:47;;;;;;;0.40;0.40;;;23.60;56.70;;;;;;5070843;28;20032;-82
2022/07/11 10:56:32;;;;;;;0.40;0.40;;;23.70;56.60;;;;;;5054220;28;20354;-83
2022/07/11 10:59:19;;;;;;;0.50;0.50;;;23.70;56.70;;;;;;5070921;28;20027;-82
2022/07/11 11:02:07;;;;;;;0.40;0.40;;;23.80;56.70;;;;;;5081779;28;20480;-85
2022/07/11 11:04:58;;;;;;;0.40;0.40;;;23.80;56.60;;;;;;5057080;28;20103;-83
2022/07/11 11:07:43;;;;;;;0.82;0.50;;;23.90;56.60;;;;;;5074829;28;20088;-84
2022/07/11 11:10:18;;;;;;;0.40;0.40;;;23.90;56.50;;;;;;5071308;28;20032;-82
2022/07/11 11:13:04;;;;;;;0.47;0.47;;;23.90;56.50;;;;;;5069772;28;20077;-82
2022/07/11 11:15:38;;;;;;;0.73;0.50;;;24.00;56.60;;;;;;5077455;28;20032;-83
2022/07/11 11:18:25;;;;;;;0.40;0.40;;;24.00;56.40;;;;;;5048701;28;20024;-86
2022/07/11 11:21:02;;;;;;;0.40;0.40;;;24.00;56.50;;;;;;5079253;28;20025;-82
2022/07/11 11:23:32;;;;;;;0.50;0.50;;;24.10;56.40;;;;;;5069611;28;20032;-81
2022/07/11 11:26:07;;;;;;;0.60;0.60;;;24.20;56.40;;;;;;5066139;28;20029;-87
2022/07/11 11:28:33;;;;;;;0.30;0.30;;;24.20;56.30;;;;;;5076934;28;20020;-87
2022/07/11 11:31:04;;;;;;;0.60;0.60;;;24.20;56.20;;;;;;5055603;28;20024;-82
2022/07/11 11:33:32;;;;;;;0.40;0.40;;;24.30;56.20;;;;;;5074286;28;20531;-83
2022/07/11 11:36:02;;;;;;;0.55;0.55;;;24.30;56.20;;;;;;5073638;28;20024;-85
2022/07/11 11:38:29;;;;;;;0.63;0.50;;;24.40;56.20;;;;;;5069226;28;20075;-81
2022/07/11 11:40:55;;;;;;;0.40;0.40;;;24.40;56.10;;;;;;5067187;28;20032;-83
2022/07/11 11:43:22;;;;;;;0.50;0.50;;;24.40;56.10;;;;;;5071067;28;20044;-81
2022/07/11 11:45:53;;;;;;;0.52;0.50;;;24.40;56.10;;;;;;5047172;28;20045;-85
2022/07/11 11:48:36;;;;;;;0.55;0.55;;;24.50;56.10;;;;;;5072413;28;20530;-82
2022/07/11 11:51:10;;;;;;;0.47;0.47;;;24.50;56.10;;;;;;5053384;28;20021;-86
2022/07/11 11:53:43;;;;;;;;;;;24.60;56.10;;;;;;5063827;28;20078;-83
2022/07/11 11:56:23;;;;;;;0.50;0.50;;;24.60;55.90;;;;;;5064401;28;20366;-84
2022/07/11 11:58:51;;;;;;;1.02;0.63;;;24.60;55.90;;;;;;5046776;28;20031;-83
2022/07/11 12:01:24;;;;;;;0.40;0.40;;;24.60;55.90;;;;;;5062756;28;20550;-84
2022/07/11 12:03:56;;;;;;;0.50;0.50;;;24.60;56.00;;;;;;5062973;28;20068;-82
2022/07/11 12:06:33;;;;;;;0.40;0.40;;;24.60;56.00;;;;;;5073685;28;20024;-83
2022/07/11 12:09:00;;;;;;;0.50;0.50;;;24.70;56.00;;;;;;5066308;28;20074;-83
2022/07/11 12:11:26;;;;;;;0.75;0.65;;;24.70;55.90;;;;;;5068943;28;20055;-84
2022/07/11 12:14:05;;;;;;;0.40;0.40;;;24.70;55.90;;;;;;5082101;28;20087;-87
2022/07/11 12:16:41;;;;;;;0.50;0.50;;;24.80;56.00;;;;;;5058986;28;20032;-86
2022/07/11 12:19:11;;;;;;;0.40;0.40;;;24.80;55.90;;;;;;5054111;28;20066;-83
2022/07/11 12:21:39;;;;;;;0.50;0.50;;;24.80;55.90;;;;;;5073523;28;20078;-86
2022/07/11 12:24:07;;;;;;;0.40;0.40;;;24.80;55.90;;;;;;5056768;28;20106;-84
2022/07/11 12:26:35;;;;;;;0.38;0.38;;;24.80;55.80;;;;;;5074088;28;20029;-84
2022/07/11 12:29:24;;;;;;;0.45;0.45;;;24.90;55.90;;;;;;5065137;28;20021;-84
2022/07/11 12:31:57;;;;;;;0.50;0.50;;;24.90;55.90;;;;;;5068657;28;20055;-86
2022/07/11 12:34:32;;;;;;;0.55;0.40;;;24.90;55.80;;;;;;5062476;28;20051;-84
2022/07/11 12:37:18;;;;;;;0.40;0.40;;;25.00;55.90;;;;;;5068689;28;20020;-85
2022/07/11 12:39:51;;;;;;;0.43;0.43;;;25.00;55.90;;;;;;5062495;28;20036;-85
2022/07/11 12:42:25;;;;;;;0.50;0.50;;;25.00;55.70;;;;;;5050054;28;20052;-84
2022/07/11 12:45:07;;;;;;;0.82;0.50;;;25.00;55.70;;;;;;5079978;28;20036;-82
2022/07/11 12:47:54;;;;;;;0.32;0.32;;;25.10;55.80;;;;;;5066856;28;20039;-82
2022/07/11 12:50:27;;;;;;;0.68;0.50;;;25.10;55.70;;;;;;5059139;28;20048;-81
2022/07/11 12:52:56;;;;;;;0.40;0.40;;;25.10;55.70;;;;;;5066091;28;20033;-81
2022/07/11 12:55:24;;;;;;;0.45;0.45;;;25.10;55.60;;;;;;5051658;28;20103;-83
2022/07/11 12:58:05;;;;;;;0.50;0.50;;;25.20;55.70;;;;;;5072937;28;20024;-83
2022/07/11 13:00:32;;;;;;;0.40;0.40;;;25.20;55.70;;;;;;5071042;28;20194;-80
2022/07/11 13:02:59;;;;;;;0.52;0.52;;;25.20;55.60;;;;;;5039325;28;20060;-81
2022/07/11 13:05:25;;;;;;;0.60;0.60;;;25.20;55.70;;;;;;5073772;28;20033;-81
2022/07/11 13:10:53;;;;;;;0.45;0.45;;;25.20;55.60;;;;;;5070779;28;20036;-81
2022/07/11 13:13:19;;;;;;;0.50;0.50;;;25.30;55.70;;;;;;5040962;28;20039;-84
2022/07/11 13:15:47;;;;;;;0.40;0.40;;;25.30;55.70;;;;;;5070831;28;20029;-81
2022/07/11 13:18:14;;;;;;;0.32;0.32;;;25.30;55.70;;;;;;5055282;28;20474;-81
2022/07/11 13:20:40;;;;;;;0.45;0.45;;;25.30;55.60;;;;;;5072478;28;20090;-84
2022/07/11 13:23:07;;;;;;;0.40;0.40;;;25.30;55.60;;;;;;5069700;28;20056;-79
2022/07/11 13:25:33;;;;;;;0.68;0.57;;;25.30;55.60;;;;;;5070794;28;20058;-78
2022/07/11 13:27:59;;;;;;;0.60;0.60;;;25.30;55.60;;;;;;5076806;28;20039;-80
2022/07/11 13:30:31;;;;;;;0.40;0.40;;;25.40;55.70;;;;;;5039684;28;20050;-93
2022/07/11 13:32:58;;;;;;;0.50;0.47;;;25.40;55.70;;;;;;5039787;28;20131;-94
2022/07/11 13:35:24;;;;;;;0.40;0.40;;;25.40;55.60;;;;;;5072610;28;20413;-81
2022/07/11 13:37:52;;;;;;;0.40;0.40;;;25.40;55.60;;;;;;5062156;28;20024;-81
2022/07/11 13:40:20;;;;;;;0.63;0.50;;;25.50;55.70;;;;;;5079341;28;20028;-83
2022/07/11 13:42:49;;;;;;;0.57;0.57;;;25.50;56.30;;;;;;5077530;28;20036;-82
2022/07/11 13:45:18;;;;;;;0.80;0.47;;;25.50;55.60;;;;;;5066202;28;20055;-81
2022/07/11 13:47:46;;;;;;;0.40;0.40;;;25.50;55.60;;;;;;5077284;28;20446;-81
2022/07/11 13:50:12;;;;;;;0.43;0.40;;;25.50;55.50;;;;;;5073187;28;20068;-82
2022/07/11 13:52:38;;;;;;;0.70;0.70;;;25.60;55.60;;;;;;5056901;28;20028;-81
2022/07/11 13:55:05;;;;;;;1.08;0.50;;;25.60;55.50;;;;;;5056643;28;20097;-81